Time;durP1;ratioP1;P1;durP2;ratioP2;P2;SDS_P1;SDS_P2;PMS_P1;PMS_P2;Temp;Humidity;BMP_temperature;BMP_pressure;BME280_temperature;BME280_humidity;BME280_pressure;Samples;Min_cycle;Max_cycle;Signal;HPM_P1;HPM_P2
2023/09/22 00:00:18;;;;;;;13.97;9.40;;;21.90;99.90;;;;;;5084114;28;20841;-80
2023/09/22 00:02:45;;;;;;;11.60;9.10;;;21.90;99.90;;;;;;5084475;28;20210;-80
2023/09/22 00:05:14;;;;;;;12.27;8.37;;;21.90;99.90;;;;;;5085872;28;20449;-79
2023/09/22 00:07:40;;;;;;;14.80;10.00;;;21.90;99.90;;;;;;5085382;28;20467;-80
2023/09/22 00:10:07;;;;;;;11.97;8.97;;;21.90;99.90;;;;;;5085788;28;20768;-79
2023/09/22 00:12:33;;;;;;;14.07;9.20;;;21.90;99.90;;;;;;5084517;28;20408;-80
2023/09/22 00:15:00;;;;;;;13.20;10.57;;;21.80;99.90;;;;;;5083903;28;20445;-80
2023/09/22 00:17:27;;;;;;;13.50;9.17;;;21.80;99.90;;;;;;5085772;28;20401;-80
2023/09/22 00:19:53;;;;;;;15.80;10.30;;;21.80;99.90;;;;;;5085455;28;20860;-80
2023/09/22 00:22:19;;;;;;;12.20;10.10;;;21.80;99.90;;;;;;5085558;28;20401;-80
2023/09/22 00:24:45;;;;;;;11.53;9.20;;;21.70;99.90;;;;;;5085734;28;20938;-79
2023/09/22 00:27:10;;;;;;;12.90;9.07;;;21.70;99.90;;;;;;5085249;28;20203;-79
2023/09/22 00:29:36;;;;;;;11.43;9.53;;;21.70;99.90;;;;;;5085839;28;20291;-79
2023/09/22 00:32:03;;;;;;;11.73;9.00;;;21.70;99.90;;;;;;5085296;28;20192;-80
2023/09/22 00:34:30;;;;;;;13.50;9.80;;;21.60;99.90;;;;;;5083990;28;20452;-80
2023/09/22 00:36:57;;;;;;;13.00;8.93;;;21.60;99.90;;;;;;5083941;28;20408;-79
2023/09/22 00:39:23;;;;;;;11.97;9.57;;;21.60;99.90;;;;;;5083969;28;20441;-80
2023/09/22 00:41:49;;;;;;;14.67;10.33;;;21.50;99.90;;;;;;5085267;28;20393;-79
2023/09/22 00:44:15;;;;;;;16.53;10.10;;;21.50;99.90;;;;;;5085393;28;20421;-80
2023/09/22 00:46:41;;;;;;;14.47;9.07;;;21.50;99.90;;;;;;5085138;28;20900;-81
2023/09/22 00:49:08;;;;;;;20.03;10.30;;;21.40;99.90;;;;;;5083910;28;20433;-80
2023/09/22 00:51:35;;;;;;;11.40;9.37;;;21.40;99.90;;;;;;5084000;28;20413;-80
2023/09/22 00:54:01;;;;;;;13.60;9.47;;;21.40;99.90;;;;;;5085133;28;20631;-80
2023/09/22 00:56:27;;;;;;;10.93;9.07;;;21.40;99.90;;;;;;5085094;28;20509;-79
2023/09/22 00:58:53;;;;;;;15.13;9.70;;;21.40;99.90;;;;;;5085412;28;20413;-79
2023/09/22 01:01:23;;;;;;;12.13;10.10;;;21.40;99.90;;;;;;5085035;28;20944;-79
2023/09/22 01:03:51;;;;;;;11.53;9.13;;;21.30;99.90;;;;;;5085106;28;20429;-80
2023/09/22 01:06:18;;;;;;;16.37;9.50;;;21.30;99.90;;;;;;5085078;28;20556;-80
2023/09/22 01:08:43;;;;;;;11.70;8.80;;;21.30;99.90;;;;;;5085249;28;20428;-80
2023/09/22 01:11:09;;;;;;;11.23;9.07;;;21.30;99.90;;;;;;5088580;28;20440;-80
2023/09/22 01:13:35;;;;;;;11.10;8.83;;;21.30;99.90;;;;;;5088809;28;20602;-79
2023/09/22 01:16:01;;;;;;;15.37;9.70;;;21.20;99.90;;;;;;5087100;28;20222;-80
2023/09/22 01:18:27;;;;;;;12.00;8.73;;;21.20;99.90;;;;;;5088667;28;20200;-80
2023/09/22 01:20:54;;;;;;;14.40;10.50;;;21.10;99.90;;;;;;5086920;28;20847;-80
2023/09/22 01:23:20;;;;;;;11.23;8.67;;;21.10;99.90;;;;;;5088656;28;20172;-80
2023/09/22 01:25:46;;;;;;;12.07;9.73;;;21.00;99.90;;;;;;5088582;28;20945;-79
2023/09/22 01:28:12;;;;;;;11.00;7.63;;;21.00;99.90;;;;;;5087060;28;20413;-81
2023/09/22 01:30:42;;;;;;;13.33;9.70;;;21.00;99.90;;;;;;5088463;28;20535;-80
2023/09/22 01:33:09;;;;;;;15.37;9.10;;;21.00;99.90;;;;;;5086885;28;21225;-80
2023/09/22 01:35:35;;;;;;;8.90;7.90;;;21.00;99.90;;;;;;5086804;28;20433;-80
2023/09/22 01:38:24;;;;;;;11.47;9.13;;;21.00;99.90;;;;;;5086732;28;20405;-79
2023/09/22 01:40:50;;;;;;;13.53;9.30;;;20.90;99.90;;;;;;5086663;28;20441;-79
2023/09/22 01:43:19;;;;;;;11.93;7.90;;;21.00;99.90;;;;;;5086844;28;20776;-80
2023/09/22 01:45:44;;;;;;;12.87;8.63;;;20.90;99.90;;;;;;5087913;28;20293;-79
2023/09/22 01:48:11;;;;;;;12.13;8.43;;;20.90;99.90;;;;;;5086607;28;21122;-79
2023/09/22 01:50:40;;;;;;;14.13;9.33;;;20.80;99.90;;;;;;5087932;28;20196;-79
2023/09/22 01:53:08;;;;;;;13.03;9.50;;;20.80;99.90;;;;;;5086166;28;20948;-79
2023/09/22 01:55:34;;;;;;;11.13;9.00;;;20.80;99.90;;;;;;5086403;28;20437;-79
2023/09/22 01:58:00;;;;;;;12.80;9.40;;;20.70;99.90;;;;;;5086551;28;20512;-79
2023/09/22 02:00:26;;;;;;;11.80;8.90;;;20.70;99.90;;;;;;5086421;28;20541;-80
2023/09/22 02:02:55;;;;;;;14.20;10.17;;;20.70;99.90;;;;;;5086292;28;20351;-80
2023/09/22 02:05:21;;;;;;;11.00;9.20;;;20.60;99.90;;;;;;5085936;28;20452;-80
2023/09/22 02:07:46;;;;;;;12.80;10.27;;;20.60;99.90;;;;;;5087805;28;20456;-79
2023/09/22 02:10:15;;;;;;;9.60;8.57;;;20.60;99.90;;;;;;5085819;28;20197;-79
2023/09/22 02:12:43;;;;;;;13.57;9.57;;;20.50;99.90;;;;;;5086974;28;20191;-81
2023/09/22 02:15:10;;;;;;;13.83;9.40;;;20.50;99.90;;;;;;5086388;28;20548;-80
2023/09/22 02:17:37;;;;;;;12.53;10.07;;;20.50;99.90;;;;;;5087729;28;20417;-79
2023/09/22 02:20:18;;;;;;;15.13;9.63;;;20.40;99.90;;;;;;5085554;28;20456;-80
2023/09/22 02:22:48;;;;;;;13.60;10.13;;;20.40;99.90;;;;;;5086324;28;20487;-80
2023/09/22 02:25:15;;;;;;;16.10;11.27;;;20.40;99.90;;;;;;5085861;28;20449;-80
2023/09/22 02:27:44;;;;;;;16.53;12.07;;;20.40;99.90;;;;;;5087170;28;20500;-80
2023/09/22 02:30:10;;;;;;;14.17;10.30;;;20.30;99.90;;;;;;5086904;28;20445;-80
2023/09/22 02:32:38;;;;;;;21.37;11.20;;;20.30;99.90;;;;;;5085871;28;20485;-79
2023/09/22 02:35:04;;;;;;;13.37;10.80;;;20.30;99.90;;;;;;5086003;28;21004;-79
2023/09/22 02:37:30;;;;;;;21.63;11.77;;;20.30;99.90;;;;;;5085355;28;20435;-80
2023/09/22 02:39:56;;;;;;;16.47;11.50;;;20.30;99.90;;;;;;5085330;28;20543;-79
2023/09/22 02:42:21;;;;;;;19.97;11.30;;;20.20;99.90;;;;;;5085369;28;20230;-80
2023/09/22 02:44:47;;;;;;;15.47;11.20;;;20.20;99.90;;;;;;5085473;28;20468;-79
2023/09/22 02:47:14;;;;;;;19.03;12.37;;;20.20;99.90;;;;;;5084672;28;20214;-80
2023/09/22 02:49:40;;;;;;;14.67;10.90;;;20.20;99.90;;;;;;5084446;28;20617;-79
2023/09/22 02:52:06;;;;;;;15.30;12.50;;;20.30;99.90;;;;;;5085123;28;20499;-80
2023/09/22 02:54:32;;;;;;;17.37;12.17;;;20.20;99.90;;;;;;5085071;28;20228;-79
2023/09/22 02:56:58;;;;;;;19.67;11.60;;;20.20;99.90;;;;;;5086555;28;20766;-79
2023/09/22 02:59:24;;;;;;;15.60;12.47;;;20.20;99.90;;;;;;5086909;28;20196;-79
2023/09/22 03:01:49;;;;;;;16.33;12.60;;;20.20;99.90;;;;;;5085212;28;20333;-79
2023/09/22 03:04:16;;;;;;;16.53;12.50;;;20.20;99.90;;;;;;5085305;28;20452;-79
2023/09/22 03:06:41;;;;;;;19.53;12.33;;;20.20;99.90;;;;;;5085010;28;20615;-79
2023/09/22 03:09:07;;;;;;;16.47;13.53;;;20.20;99.90;;;;;;5083206;28;20506;-79
2023/09/22 03:11:33;;;;;;;18.60;13.17;;;20.20;99.90;;;;;;5083599;28;20614;-79
2023/09/22 03:13:59;;;;;;;21.47;12.70;;;20.20;99.90;;;;;;5084574;28;20195;-80
2023/09/22 03:16:28;;;;;;;19.93;13.20;;;20.30;99.90;;;;;;5083281;28;20802;-79
2023/09/22 03:18:54;;;;;;;15.87;12.53;;;20.30;99.90;;;;;;5083543;28;20425;-79
2023/09/22 03:21:22;;;;;;;16.30;12.37;;;20.30;99.90;;;;;;5083173;28;20719;-80
2023/09/22 03:23:57;;;;;;;18.00;13.70;;;20.40;99.90;;;;;;5084451;28;20656;-80
2023/09/22 03:26:23;;;;;;;19.07;12.10;;;20.30;99.90;;;;;;5084808;28;20994;-80
2023/09/22 03:28:49;;;;;;;17.63;13.47;;;20.30;99.90;;;;;;5084819;28;20515;-79
2023/09/22 03:31:16;;;;;;;17.40;13.43;;;20.30;99.90;;;;;;5085388;28;20224;-80
2023/09/22 03:33:45;;;;;;;18.10;12.63;;;20.30;99.90;;;;;;5086518;28;20491;-80
2023/09/22 03:36:12;;;;;;;16.70;12.13;;;20.20;99.90;;;;;;5084290;28;20551;-79
2023/09/22 03:38:40;;;;;;;17.00;11.67;;;20.20;99.90;;;;;;5085165;28;20493;-80
2023/09/22 03:41:05;;;;;;;16.60;13.93;;;20.20;99.90;;;;;;5085702;28;20469;-79
2023/09/22 03:43:33;;;;;;;17.10;14.13;;;20.20;99.90;;;;;;5084387;28;20421;-80
2023/09/22 03:45:59;;;;;;;17.50;13.20;;;20.10;99.90;;;;;;5085383;28;20294;-79
2023/09/22 03:48:25;;;;;;;17.10;12.50;;;20.10;99.90;;;;;;5086241;28;20512;-80
2023/09/22 03:50:51;;;;;;;17.47;12.73;;;20.10;99.90;;;;;;5084513;28;20208;-80
2023/09/22 03:53:17;;;;;;;20.67;13.00;;;20.10;99.90;;;;;;5085389;28;20436;-80
2023/09/22 03:55:46;;;;;;;19.13;13.37;;;20.10;99.90;;;;;;5084388;28;20480;-81
2023/09/22 03:58:12;;;;;;;17.90;13.27;;;20.10;99.90;;;;;;5082828;28;20176;-81
2023/09/22 04:00:37;;;;;;;18.90;14.53;;;20.10;99.90;;;;;;5083443;28;20797;-80
2023/09/22 04:03:05;;;;;;;22.33;14.57;;;20.10;99.90;;;;;;5084096;28;20190;-80
2023/09/22 04:05:30;;;;;;;18.30;13.67;;;20.10;99.90;;;;;;5084847;28;20199;-80
2023/09/22 04:07:57;;;;;;;17.70;12.57;;;20.10;99.90;;;;;;5085382;28;20402;-81
2023/09/22 04:10:23;;;;;;;13.67;11.63;;;20.20;99.90;;;;;;5083246;28;20234;-80
2023/09/22 04:12:50;;;;;;;17.43;13.53;;;20.10;99.90;;;;;;5083354;28;20408;-80
2023/09/22 04:15:16;;;;;;;19.47;12.00;;;20.10;99.90;;;;;;5080395;28;20488;-81
2023/09/22 04:17:42;;;;;;;15.67;11.87;;;20.20;99.90;;;;;;5083853;28;20951;-81
2023/09/22 04:20:11;;;;;;;13.83;11.70;;;20.20;99.90;;;;;;5082151;28;20651;-81
2023/09/22 04:22:37;;;;;;;16.73;12.60;;;20.20;99.90;;;;;;5083252;28;20468;-81
2023/09/22 04:25:18;;;;;;;18.77;11.80;;;20.20;99.90;;;;;;5082396;28;20440;-81
2023/09/22 04:27:53;;;;;;;18.20;12.50;;;20.10;99.90;;;;;;5082491;28;20468;-82
2023/09/22 04:30:20;;;;;;;19.20;13.00;;;20.10;99.90;;;;;;5082862;28;20496;-82
2023/09/22 04:32:47;;;;;;;17.03;12.37;;;20.00;99.90;;;;;;5082572;28;20502;-82
2023/09/22 04:35:13;;;;;;;16.13;12.63;;;20.00;99.90;;;;;;5083286;28;20453;-81
2023/09/22 04:37:40;;;;;;;22.37;13.50;;;20.00;99.90;;;;;;5083449;28;20400;-81
2023/09/22 04:40:27;;;;;;;16.40;12.60;;;20.00;99.90;;;;;;5082201;28;20536;-81
2023/09/22 04:42:53;;;;;;;16.00;13.20;;;20.00;99.90;;;;;;5085151;28;20779;-82
2023/09/22 04:45:19;;;;;;;16.37;12.83;;;19.90;99.90;;;;;;5087725;28;20451;-81
2023/09/22 04:47:47;;;;;;;16.30;12.53;;;19.90;99.90;;;;;;5086308;28;20728;-81
2023/09/22 04:50:16;;;;;;;18.50;14.20;;;20.00;99.90;;;;;;5086358;28;20559;-81
2023/09/22 04:52:42;;;;;;;18.37;12.60;;;19.90;99.90;;;;;;5087602;28;20417;-80
2023/09/22 04:55:08;;;;;;;19.53;13.83;;;20.00;99.90;;;;;;5085445;28;20480;-81
2023/09/22 04:57:34;;;;;;;20.53;13.03;;;20.00;99.90;;;;;;5084698;28;20421;-82
2023/09/22 04:59:59;;;;;;;22.93;14.77;;;19.90;99.90;;;;;;5076730;28;20437;-81
2023/09/22 05:02:26;;;;;;;14.40;12.23;;;20.00;99.90;;;;;;5079557;28;20185;-81
2023/09/22 05:04:52;;;;;;;17.50;13.17;;;20.00;99.90;;;;;;5080244;28;20223;-82
2023/09/22 05:07:17;;;;;;;18.10;14.27;;;20.00;99.90;;;;;;5086316;28;21008;-81
2023/09/22 05:09:43;;;;;;;17.90;13.33;;;20.00;99.90;;;;;;5085951;28;20460;-81
2023/09/22 05:12:09;;;;;;;24.20;14.03;;;20.00;99.90;;;;;;5087597;28;20188;-80
2023/09/22 05:14:35;;;;;;;20.07;14.33;;;20.00;99.90;;;;;;5085881;28;20467;-82
2023/09/22 05:17:01;;;;;;;18.90;14.57;;;20.00;99.90;;;;;;5085171;28;20237;-79
2023/09/22 05:19:26;;;;;;;17.93;14.73;;;20.10;99.90;;;;;;5087722;28;21041;-79
2023/09/22 05:21:52;;;;;;;23.00;16.00;;;20.10;99.90;;;;;;5085830;28;20658;-79
2023/09/22 05:24:18;;;;;;;20.03;13.50;;;20.10;99.90;;;;;;5086882;28;20664;-79
2023/09/22 05:26:44;;;;;;;22.73;14.30;;;20.20;99.90;;;;;;5087665;28;20471;-79
2023/09/22 05:29:10;;;;;;;20.00;14.40;;;20.20;99.90;;;;;;5086023;28;20214;-80
2023/09/22 05:31:36;;;;;;;20.23;14.80;;;20.30;99.90;;;;;;5085621;28;20180;-80
2023/09/22 05:34:02;;;;;;;20.33;14.13;;;20.30;99.90;;;;;;5085406;28;20421;-80
2023/09/22 05:36:29;;;;;;;17.87;14.80;;;20.30;99.90;;;;;;5087007;28;20632;-80
2023/09/22 05:38:56;;;;;;;18.80;14.33;;;20.30;99.90;;;;;;5078830;28;20448;-79
2023/09/22 05:41:22;;;;;;;23.50;14.80;;;20.40;99.90;;;;;;5078405;28;20448;-79
2023/09/22 05:43:49;;;;;;;21.50;15.00;;;20.40;99.90;;;;;;5074902;28;20932;-80
2023/09/22 05:46:15;;;;;;;20.43;15.00;;;20.40;99.90;;;;;;5080604;28;20924;-80
2023/09/22 05:48:41;;;;;;;20.53;14.97;;;20.40;99.90;;;;;;5082538;28;20516;-80
2023/09/22 05:51:07;;;;;;;23.67;14.90;;;20.50;99.90;;;;;;5080992;28;20669;-80
2023/09/22 05:53:34;;;;;;;18.23;13.40;;;20.60;99.90;;;;;;5078544;28;20575;-80
2023/09/22 05:56:08;;;;;;;22.70;16.57;;;20.60;99.90;;;;;;5075965;28;21171;-80
2023/09/22 05:58:37;;;;;;;28.47;19.03;;;20.60;99.90;;;;;;5072563;28;20414;-81
2023/09/22 06:01:12;;;;;;;33.87;24.03;;;20.60;99.90;;;;;;5074454;28;20442;-80
2023/09/22 06:03:39;;;;;;;35.73;25.23;;;20.60;99.90;;;;;;5097858;27;20444;-79
2023/09/22 06:06:12;;;;;;;27.67;20.27;;;20.60;99.90;;;;;;5077358;28;20457;-80
2023/09/22 06:08:44;;;;;;;30.03;20.13;;;20.60;99.90;;;;;;5075603;28;20441;-80
2023/09/22 06:11:10;;;;;;;23.97;17.43;;;20.60;99.90;;;;;;5070350;28;21004;-79
2023/09/22 06:13:37;;;;;;;21.30;15.50;;;20.70;99.90;;;;;;5097325;27;20730;-80
2023/09/22 06:16:04;;;;;;;22.13;14.80;;;20.80;99.90;;;;;;5066561;28;20723;-79
2023/09/22 06:18:30;;;;;;;21.93;14.10;;;20.80;99.90;;;;;;5071903;28;20544;-79
2023/09/22 06:20:57;;;;;;;19.80;14.37;;;20.80;99.90;;;;;;5071480;28;20445;-79
2023/09/22 06:23:23;;;;;;;22.10;13.53;;;20.80;99.90;;;;;;5083008;28;20424;-80
2023/09/22 06:25:51;;;;;;;18.30;13.70;;;20.90;99.90;;;;;;5081719;28;20487;-80
2023/09/22 06:28:18;;;;;;;18.00;12.93;;;20.90;99.90;;;;;;5082863;28;20473;-79
2023/09/22 06:30:46;;;;;;;22.03;14.67;;;21.00;99.90;;;;;;5081956;28;20425;-79
2023/09/22 06:33:16;;;;;;;34.43;20.13;;;21.00;99.90;;;;;;5082086;28;20432;-79
2023/09/22 06:35:46;;;;;;;34.03;20.53;;;21.10;99.90;;;;;;5080383;28;20440;-80
2023/09/22 06:38:13;;;;;;;25.40;17.57;;;21.10;99.90;;;;;;5079880;28;20428;-80
2023/09/22 06:40:39;;;;;;;23.27;15.10;;;21.10;99.90;;;;;;5080530;28;20487;-80
2023/09/22 06:43:05;;;;;;;19.23;14.70;;;21.10;99.90;;;;;;5077000;28;20887;-79
2023/09/22 06:45:37;;;;;;;18.67;14.00;;;21.20;99.90;;;;;;5072006;28;20197;-79
2023/09/22 06:48:05;;;;;;;17.77;13.97;;;21.20;99.90;;;;;;5071586;28;20421;-80
2023/09/22 06:50:37;;;;;;;14.67;12.07;;;21.30;99.90;;;;;;5070481;28;20980;-80
2023/09/22 06:53:03;;;;;;;22.93;15.20;;;21.30;99.90;;;;;;5080395;28;20462;-80
2023/09/22 06:55:30;;;;;;;23.90;15.47;;;21.40;99.90;;;;;;5079506;28;20540;-79
2023/09/22 06:57:58;;;;;;;20.87;15.90;;;21.50;99.90;;;;;;5081477;28;20469;-80
2023/09/22 07:00:28;;;;;;;20.90;14.10;;;21.60;99.90;;;;;;5077242;28;20461;-80
2023/09/22 07:02:54;;;;;;;21.93;15.00;;;21.60;99.90;;;;;;5078251;28;20709;-80
2023/09/22 07:05:20;;;;;;;20.40;17.27;;;21.70;99.90;;;;;;5075335;28;20453;-80
2023/09/22 07:07:46;;;;;;;23.30;17.30;;;21.90;99.90;;;;;;5079435;28;20813;-79
2023/09/22 07:10:13;;;;;;;30.60;14.97;;;22.00;99.90;;;;;;5077147;28;20215;-79
2023/09/22 07:12:39;;;;;;;25.13;19.10;;;22.00;99.90;;;;;;5079548;28;20421;-80
2023/09/22 07:15:06;;;;;;;33.90;23.53;;;22.10;99.90;;;;;;5079805;28;20509;-79
2023/09/22 07:17:33;;;;;;;30.67;20.80;;;22.30;99.90;;;;;;5077705;28;20699;-79
2023/09/22 07:20:00;;;;;;;43.20;30.50;;;22.30;99.90;;;;;;5079698;28;20468;-80
2023/09/22 07:22:26;;;;;;;38.83;27.43;;;22.40;99.90;;;;;;5076283;28;20739;-80
2023/09/22 07:24:52;;;;;;;41.40;27.23;;;22.60;99.90;;;;;;5079889;28;20453;-80
2023/09/22 07:27:18;;;;;;;31.50;21.63;;;22.70;99.90;;;;;;5079461;28;20916;-79
2023/09/22 07:29:44;;;;;;;35.40;22.93;;;22.80;99.90;;;;;;5079295;28;20677;-80
2023/09/22 07:32:10;;;;;;;25.37;20.60;;;22.90;99.90;;;;;;5079971;28;20765;-80
2023/09/22 07:34:35;;;;;;;21.83;15.00;;;23.10;99.90;;;;;;5077285;28;20202;-79
2023/09/22 07:37:01;;;;;;;24.20;19.23;;;23.20;99.90;;;;;;5077753;28;20859;-80
2023/09/22 07:39:27;;;;;;;12.83;9.17;;;23.40;99.90;;;;;;5078870;28;20624;-80
2023/09/22 07:41:52;;;;;;;12.97;7.20;;;23.60;99.90;;;;;;5077395;28;20232;-79
2023/09/22 07:44:23;;;;;;;7.83;6.73;;;23.70;99.90;;;;;;5079659;28;20190;-80
2023/09/22 07:46:49;;;;;;;6.40;5.33;;;23.90;99.90;;;;;;5075211;28;20293;-80
2023/09/22 07:49:15;;;;;;;8.93;6.33;;;24.00;99.90;;;;;;5078226;28;20715;-80
2023/09/22 07:51:41;;;;;;;10.07;5.10;;;24.20;99.90;;;;;;5076324;28;20638;-80
2023/09/22 07:54:08;;;;;;;9.97;7.50;;;24.30;99.90;;;;;;5076867;28;20645;-80
2023/09/22 07:56:34;;;;;;;8.43;6.60;;;24.40;99.90;;;;;;5075039;28;20712;-80
2023/09/22 07:59:03;;;;;;;9.33;5.43;;;24.40;99.90;;;;;;5075885;28;20441;-80
2023/09/22 08:01:29;;;;;;;8.70;5.30;;;24.50;99.90;;;;;;5077577;28;20210;-79
2023/09/22 08:03:54;;;;;;;8.83;5.73;;;24.60;99.90;;;;;;5080011;28;20968;-80
2023/09/22 08:06:20;;;;;;;9.10;5.10;;;24.80;99.90;;;;;;5078630;28;20662;-80
2023/09/22 08:08:49;;;;;;;6.90;4.93;;;25.00;99.90;;;;;;5078225;28;20415;-80
2023/09/22 08:11:18;;;;;;;6.07;4.43;;;25.20;99.90;;;;;;5087748;28;20205;-80
2023/09/22 08:13:45;;;;;;;6.40;4.73;;;25.60;99.90;;;;;;5084289;28;20494;-80
2023/09/22 08:16:13;;;;;;;8.50;6.00;;;26.00;99.90;;;;;;5076029;28;21117;-80
2023/09/22 08:18:40;;;;;;;7.90;4.97;;;26.50;99.90;;;;;;5078218;28;20433;-81
2023/09/22 08:21:06;;;;;;;9.20;6.90;;;27.10;99.90;;;;;;5073449;28;20481;-80
2023/09/22 08:23:32;;;;;;;17.00;11.33;;;27.80;99.90;;;;;;5074851;28;20428;-80
2023/09/22 08:25:58;;;;;;;16.20;12.33;;;28.40;99.90;;;;;;5079273;28;20799;-80
2023/09/22 08:28:25;;;;;;;8.03;7.10;;;28.90;99.90;;;;;;5080561;28;20475;-80
2023/09/22 08:30:56;;;;;;;7.50;6.73;;;29.40;99.90;;;;;;5076860;28;20296;-80
2023/09/22 08:33:21;;;;;;;10.67;6.30;;;29.60;99.90;;;;;;5078883;28;20422;-80
2023/09/22 08:35:51;;;;;;;8.83;6.00;;;29.50;99.90;;;;;;5075516;28;20434;-80
2023/09/22 08:38:17;;;;;;;9.23;5.80;;;29.50;99.90;;;;;;5068329;28;20270;-80
2023/09/22 08:40:46;;;;;;;12.03;4.50;;;29.40;99.90;;;;;;5082884;28;20492;-80
2023/09/22 08:43:12;;;;;;;8.80;4.50;;;29.40;99.90;;;;;;5078835;28;20791;-80
2023/09/22 08:45:38;;;;;;;4.97;3.40;;;29.50;99.90;;;;;;5080857;28;20903;-80
2023/09/22 08:48:04;;;;;;;4.40;4.00;;;29.80;99.90;;;;;;5077763;28;20334;-80
2023/09/22 08:50:30;;;;;;;5.70;4.10;;;29.80;99.90;;;;;;5076446;28;20444;-80
2023/09/22 08:52:57;;;;;;;6.80;3.57;;;29.60;99.90;;;;;;5078382;28;20836;-80
2023/09/22 08:55:23;;;;;;;5.83;4.00;;;29.40;99.90;;;;;;5073486;28;20465;-80
2023/09/22 08:57:51;;;;;;;4.90;3.27;;;29.20;99.90;;;;;;5075562;28;20815;-79
2023/09/22 09:00:26;;;;;;;5.33;4.17;;;28.90;99.90;;;;;;5080086;28;20458;-80
2023/09/22 09:02:55;;;;;;;6.03;3.50;;;28.60;99.90;;;;;;5083356;28;20432;-80
2023/09/22 09:05:33;;;;;;;6.57;4.60;;;28.40;99.90;;;;;;5083868;28;20438;-80
2023/09/22 09:08:19;;;;;;;6.50;4.07;;;28.40;99.90;;;;;;5080578;28;20868;-80
2023/09/22 09:10:47;;;;;;;6.03;4.60;;;28.30;99.90;;;;;;5081009;28;20448;-80
2023/09/22 09:13:23;;;;;;;5.83;3.67;;;28.30;99.90;;;;;;5079805;28;21041;-80
2023/09/22 09:15:54;;;;;;;7.37;3.60;;;28.30;99.90;;;;;;5081033;28;20476;-80
2023/09/22 09:18:23;;;;;;;4.77;3.77;;;28.30;99.90;;;;;;5080179;28;21018;-80
2023/09/22 09:21:14;;;;;;;4.57;3.60;;;28.40;99.90;;;;;;5079188;28;20500;-80
2023/09/22 09:23:54;;;;;;;9.10;4.43;;;28.40;99.90;;;;;;5080725;28;20440;-80
2023/09/22 09:26:38;;;;;;;4.33;3.87;;;28.40;99.90;;;;;;5080890;28;20471;-80
2023/09/22 09:29:04;;;;;;;7.30;3.87;;;28.50;99.90;;;;;;5075641;28;20626;-80
2023/09/22 09:31:43;;;;;;;4.80;3.70;;;28.50;99.90;;;;;;5078887;28;20540;-80
2023/09/22 09:34:09;;;;;;;6.50;4.37;;;28.40;99.90;;;;;;5069913;28;20240;-80
2023/09/22 09:36:35;;;;;;;7.23;4.30;;;28.40;99.90;;;;;;5080123;28;20947;-80
2023/09/22 09:39:00;;;;;;;5.23;4.50;;;28.40;99.90;;;;;;5076385;28;20226;-80
2023/09/22 09:41:27;;;;;;;5.63;3.90;;;28.40;99.90;;;;;;5078276;28;20353;-80
2023/09/22 09:43:54;;;;;;;5.57;4.37;;;28.50;99.90;;;;;;5082455;28;20676;-80
2023/09/22 09:46:21;;;;;;;6.70;4.33;;;28.50;99.90;;;;;;5076860;28;20512;-80
2023/09/22 09:48:51;;;;;;;5.03;3.20;;;28.60;99.90;;;;;;5082355;28;20440;-80
2023/09/22 09:51:20;;;;;;;8.90;4.90;;;28.50;99.90;;;;;;5080791;28;20504;-80
2023/09/22 09:53:47;;;;;;;4.60;4.10;;;28.50;99.90;;;;;;5079005;28;20945;-80
2023/09/22 09:56:18;;;;;;;7.33;4.47;;;28.50;99.90;;;;;;5079661;28;20440;-80
2023/09/22 09:58:48;;;;;;;7.70;3.90;;;28.60;99.90;;;;;;5081333;28;20427;-80
2023/09/22 10:01:14;;;;;;;6.07;4.40;;;28.50;99.90;;;;;;5079608;28;21022;-80
2023/09/22 10:03:39;;;;;;;11.73;5.00;;;28.50;99.90;;;;;;5081427;28;20793;-81
2023/09/22 10:06:11;;;;;;;5.23;3.70;;;28.50;99.90;;;;;;5075651;28;20501;-80
2023/09/22 10:08:37;;;;;;;8.30;4.13;;;28.60;99.90;;;;;;5082191;28;20184;-80
2023/09/22 10:11:06;;;;;;;5.83;3.77;;;28.60;99.90;;;;;;5080332;28;20782;-80
2023/09/22 10:13:33;;;;;;;5.63;4.20;;;28.60;99.90;;;;;;5080581;28;20433;-80
2023/09/22 10:16:08;;;;;;;7.23;4.47;;;28.70;99.90;;;;;;5076908;28;20692;-80
2023/09/22 10:18:47;;;;;;;8.50;4.40;;;28.70;99.90;;;;;;5070637;28;20439;-80
2023/09/22 10:21:39;;;;;;;11.53;4.37;;;28.80;99.90;;;;;;5067278;28;20465;-80
2023/09/22 10:24:25;;;;;;;4.67;4.20;;;28.80;99.90;;;;;;5067156;28;20434;-80
2023/09/22 10:26:56;;;;;;;8.73;4.73;;;28.90;99.90;;;;;;5078071;28;20468;-80
2023/09/22 10:29:37;;;;;;;5.80;4.57;;;28.90;99.90;;;;;;5081696;28;20433;-80
2023/09/22 10:32:17;;;;;;;6.30;4.30;;;29.00;99.90;;;;;;5080047;28;20421;-80
2023/09/22 10:35:03;;;;;;;7.73;5.03;;;29.00;99.90;;;;;;5077444;28;20453;-80
2023/09/22 10:37:32;;;;;;;9.03;4.70;;;29.00;99.90;;;;;;5075296;28;20527;-80
2023/09/22 10:40:19;;;;;;;6.70;4.70;;;29.00;99.90;;;;;;5068020;28;20455;-80
2023/09/22 10:42:52;;;;;;;7.60;4.80;;;29.00;99.90;;;;;;5076052;28;20641;-80
2023/09/22 10:45:28;;;;;;;7.10;4.77;;;29.10;99.90;;;;;;5074871;28;20504;-80
2023/09/22 10:47:56;;;;;;;5.90;4.53;;;29.20;99.90;;;;;;5076543;28;20536;-80
2023/09/22 10:50:30;;;;;;;9.37;5.40;;;29.30;99.90;;;;;;5074537;28;21021;-80
2023/09/22 10:53:02;;;;;;;7.70;5.27;;;29.30;99.90;;;;;;5073376;28;20945;-80
2023/09/22 10:55:36;;;;;;;7.80;5.23;;;29.40;99.90;;;;;;5072180;28;20439;-80
2023/09/22 10:58:06;;;;;;;5.80;4.70;;;29.50;99.90;;;;;;5067790;28;20513;-80
2023/09/22 11:00:38;;;;;;;7.07;4.60;;;29.60;99.90;;;;;;5069891;28;20626;-80
2023/09/22 11:03:12;;;;;;;5.70;3.83;;;29.60;99.90;;;;;;5067173;28;20481;-81
2023/09/22 11:05:38;;;;;;;8.00;4.30;;;29.70;99.90;;;;;;5063468;28;20445;-80
2023/09/22 11:08:16;;;;;;;8.30;4.47;;;29.80;99.90;;;;;;5068943;28;20865;-80
2023/09/22 11:10:46;;;;;;;5.00;4.37;;;29.70;99.90;;;;;;5072955;28;20447;-80
2023/09/22 11:13:13;;;;;;;9.40;4.00;;;29.80;99.90;;;;;;5066919;28;21062;-81
2023/09/22 11:15:50;;;;;;;5.27;4.30;;;29.90;99.90;;;;;;5065521;28;20438;-80
2023/09/22 11:18:35;;;;;;;7.43;4.20;;;29.90;99.90;;;;;;5067158;28;20464;-80
2023/09/22 11:21:10;;;;;;;6.30;4.10;;;29.90;99.90;;;;;;5075167;28;20535;-80
2023/09/22 11:23:38;;;;;;;5.43;4.43;;;29.90;99.90;;;;;;5079025;28;21177;-80
2023/09/22 11:26:09;;;;;;;8.93;4.23;;;29.90;99.90;;;;;;5073954;28;20443;-80
2023/09/22 11:28:41;;;;;;;5.40;4.47;;;29.90;99.90;;;;;;5099385;28;20483;-80
2023/09/22 11:31:09;;;;;;;8.90;4.43;;;30.00;99.90;;;;;;5069648;28;20449;-80
2023/09/22 11:33:36;;;;;;;6.50;4.40;;;30.00;99.90;;;;;;5061535;28;21104;-80
2023/09/22 11:36:03;;;;;;;5.17;4.37;;;30.00;99.90;;;;;;5073198;28;20797;-80
2023/09/22 11:38:31;;;;;;;7.33;4.20;;;30.10;99.90;;;;;;5079806;28;20459;-80
2023/09/22 11:41:08;;;;;;;12.80;5.20;;;30.20;99.90;;;;;;5077692;28;20449;-80
2023/09/22 11:43:45;;;;;;;9.57;4.07;;;30.20;99.90;;;;;;5078162;28;20475;-81
2023/09/22 11:46:38;;;;;;;5.10;4.50;;;30.30;99.90;;;;;;5071667;28;20480;-80
2023/09/22 11:49:07;;;;;;;6.53;4.57;;;30.30;99.90;;;;;;5075979;28;20448;-80
2023/09/22 11:51:52;;;;;;;6.20;4.40;;;30.30;99.90;;;;;;5078823;28;20417;-80
2023/09/22 11:54:23;;;;;;;9.07;3.73;;;30.40;99.90;;;;;;5079686;28;20468;-80
2023/09/22 11:56:52;;;;;;;6.70;3.83;;;30.40;99.90;;;;;;5081472;28;20409;-79
2023/09/22 11:59:22;;;;;;;6.50;4.17;;;30.40;99.90;;;;;;5078117;28;20719;-80
2023/09/22 12:01:51;;;;;;;6.33;3.53;;;30.40;99.90;;;;;;5076178;28;20553;-80
2023/09/22 12:04:19;;;;;;;5.00;4.50;;;30.40;99.90;;;;;;5068578;28;20440;-80
2023/09/22 12:06:45;;;;;;;7.53;3.80;;;30.50;99.90;;;;;;5068735;28;20551;-80
2023/09/22 12:09:11;;;;;;;10.40;4.20;;;30.40;99.90;;;;;;5075136;28;20565;-80
2023/09/22 12:11:37;;;;;;;7.87;4.30;;;30.40;99.90;;;;;;5065419;28;21092;-81
2023/09/22 12:14:04;;;;;;;8.37;4.70;;;30.40;99.90;;;;;;5076559;28;20980;-80
2023/09/22 12:16:30;;;;;;;6.43;4.77;;;30.40;99.90;;;;;;5073240;28;20956;-80
2023/09/22 12:18:56;;;;;;;8.57;4.00;;;30.40;99.90;;;;;;5067892;28;20624;-80
2023/09/22 12:21:22;;;;;;;7.57;4.43;;;30.40;99.90;;;;;;5079231;28;20432;-80
2023/09/22 12:23:48;;;;;;;6.77;3.90;;;30.40;99.90;;;;;;5074051;28;20448;-80
2023/09/22 12:26:13;;;;;;;8.03;4.00;;;30.40;99.90;;;;;;5078810;28;20897;-80
2023/09/22 12:28:42;;;;;;;7.30;4.47;;;30.50;99.90;;;;;;5078301;28;20590;-80
2023/09/22 12:31:09;;;;;;;8.47;4.47;;;30.40;99.90;;;;;;5074899;28;20256;-80
2023/09/22 12:33:36;;;;;;;7.10;4.40;;;30.40;99.90;;;;;;5078022;28;20443;-80
2023/09/22 12:36:02;;;;;;;9.17;4.90;;;30.40;99.90;;;;;;5057723;28;20442;-80
2023/09/22 12:38:28;;;;;;;7.80;4.37;;;30.40;99.90;;;;;;5074654;28;20522;-80
2023/09/22 12:40:54;;;;;;;6.83;4.73;;;30.40;99.80;;;;;;5073205;28;20243;-80